aviador You're here:

KANK Decoded Metar

in
Report Time2018-04-26 12:55:00
UTC Time2018-04-26 13:09:34
Flight Rules vfr VFR
WindCalm
Visibility9999 m
Phenomena:N/A
Clouds:N/A
Expected CloudBase > 2,800 ft AGL from Temp-Dew spread
CeilingNone
Temp00°C
Dew Point-7°C (60% RH)
AAT-2.8°C
QNH1025 hPa
Raw Report
KANK 261255Z AUTO 00000KT 10SM CLR 00/M07 A3027 RMK AO1
T00031072=

Extra information for KANK:More info

Social comments